Архив погоды в Арзамасе

Метеограмма Арзамас
Пятница, 21 Сентября
Время местн. Темп Ветер Видим Явления Облачность нижн/средн/верх Атм. давл. Влжн Точка росы ВНГО R Сост. почвы Tg s
Напр Скр Прв ур.ст ур.м изм
03:00 +9.4° З,С-З 1 2 4 км - ясно 752 763 +7 96% +8.8° более 2.5 км - - - -
00:00 +11.6° С-З 2 6 4 км - облачно с прояснениями 748 762 +0.8 85% +9.2° 600 м - - - -
Четверг, 20 Сентября
Время местн. Темп Ветер Видим Явления Облачность нижн/средн/верх Атм. давл. Влжн Точка росы ВНГО R Сост. почвы Tg s
Напр Скр Прв ур.ст ур.м изм
21:00 +16° С-З 2 3 4 км - преимущественно облачно 750 761 +1.1 73% +11.2° - - - - -
18:00 +18.8° С,С-З 2 4 20 км - преимущественно облачно 749 760 +1.4 62% +11.3° - - - - -
15:00 +23° З 4 8 20 км - облачно с прояснениями 747 758 -0.5 53% +12.9° 600 м - - - -
12:00 +20.6° З 4 6 20 км - облачно с прояснениями 748 759 -1.1 57% +11.7° 1 км - - - -
09:00 +11.2° Ю,Ю-З 2 3 20 км - облачно с прояснениями 749 760 -0.4 92% +10° 600 м - - - -
06:00 +11.1° Ю-З 2 4 20 км - облачно 749 760 -0.2 91% +9.7° 600 м - Сухая (без трещин) - -
03:00 +11.4° З 1 2 4 км - облачно 749 761 0 89% +9.7° 600 м - - - -
00:00 +11.3° штиль 0 0 4 км - облачно 749 761 -0.5 87% +9.3° - - - - -
Среда, 19 Сентября
Время местн. Темп Ветер Видим Явления Облачность нижн/средн/верх Атм. давл. Влжн Точка росы ВНГО R Сост. почвы Tg s
Напр Скр Прв ур.ст ур.м изм
21:00 +11.6° З,С-З 1 3 4 км - облачно 750 761 +0.4 84% +9° 600 м - - - -
18:00 +13° З 4 5 20 км - облачно с прояснениями 749 761 +0.1 72% +8.1° 600 м - - - -
15:00 +14.9° З,С-З 3 7 20 км - облачно 749 760 -0.2 54% +5.6° 600 м - - - -
12:00 +15.1° З,С-З 5 8 20 км - облачно с прояснениями 750 761 -0.2 45% +3.4° 600 м - - - -
09:00 +11.2° З,С-З 4 7 20 км - переменная облачность 750 761 +0.5 69% +5.8° более 2.5 км - - - -
06:00 +6.2° З,С-З 1 3 20 км - переменная облачность 749 761 +0.7 89% +4.6° - - Влажная (без луж) - -
03:00 +8.6° С-З 1 2 4 км - ясно 749 760 +0.5 78% +5° более 2.5 км - - - -
00:00 +8.6° З,С-З 1 3 4 км - переменная облачность 748 759 +0.5 86% +6.4° - - - - -
Вторник, 18 Сентября
Время местн. Темп Ветер Видим Явления Облачность нижн/средн/верх Атм. давл. Влжн Точка росы ВНГО R Сост. почвы Tg s
Напр Скр Прв ур.ст ур.м изм
21:00 +11.4° З 2 4 4 км небо без изменений {дождь} облачно 748 759 +0.5 89% +9.7° 600 м - - - -
18:00 +12.6° З,Ю-З 3 5 20 км - преимущественно облачно 747 758 -0.5 80% +9.3° 600 м - - - -
15:00 +11.6° З 4 6 20 км небо без изменений {дождь} облачно 748 759 -1 83% +8.8° 600 м - - - -
12:00 +11.7° Ю-З 3 8 20 км - облачно 749 760 -1.3 72% +6.8° 600 м - - - -
09:00 +7.8° Ю 2 4 20 км - облачно 750 761 -1.1 80% +4.6° - - - - -
06:00 -1.6° штиль 0 0 20 км сплошной поземный туман переменная облачность 751 763 -0.6 96% -2.2° - - Сухая (без трещин) - -
03:00 -0.8° В,С-В 1 1 4 км - ясно 752 763 -0.4 96% -1.4° более 2.5 км - - - -
00:00 +1.7° штиль 0 0 4 км - ясно 752 764 -0.1 94% +0.9° более 2.5 км - - - -